sensor_id;sensor_type;location;lat;lon;timestamp;P1;durP1;ratioP1;P2;durP2;ratioP2
3331;SDS011;1678;50.94845400;5.30809100;2023-02-17T00:01:12;7.33;;;6.10;;
3331;SDS011;1678;50.94845400;5.30809100;2023-02-17T00:03:41;6.37;;;5.77;;
3331;SDS011;1678;50.94845400;5.30809100;2023-02-17T00:06:13;7.17;;;6.53;;
3331;SDS011;1678;50.94845400;5.30809100;2023-02-17T00:08:43;5.63;;;5.13;;
3331;SDS011;1678;50.94845400;5.30809100;2023-02-17T00:11:11;5.60;;;5.13;;
3331;SDS011;1678;50.94845400;5.30809100;2023-02-17T00:13:40;6.63;;;6.03;;
3331;SDS011;1678;50.94845400;5.30809100;2023-02-17T00:16:10;6.77;;;6.30;;
3331;SDS011;1678;50.94845400;5.30809100;2023-02-17T00:18:41;7.60;;;6.07;;
3331;SDS011;1678;50.94845400;5.30809100;2023-02-17T00:21:10;5.43;;;5.13;;
3331;SDS011;1678;50.94845400;5.30809100;2023-02-17T00:23:39;9.57;;;6.90;;
3331;SDS011;1678;50.94845400;5.30809100;2023-02-17T00:26:07;7.13;;;6.60;;
3331;SDS011;1678;50.94845400;5.30809100;2023-02-17T00:28:35;6.37;;;5.43;;
3331;SDS011;1678;50.94845400;5.30809100;2023-02-17T00:31:04;8.20;;;6.73;;
3331;SDS011;1678;50.94845400;5.30809100;2023-02-17T00:33:35;7.83;;;6.20;;
3331;SDS011;1678;50.94845400;5.30809100;2023-02-17T00:36:03;7.33;;;6.73;;
3331;SDS011;1678;50.94845400;5.30809100;2023-02-17T00:38:32;8.30;;;7.10;;
3331;SDS011;1678;50.94845400;5.30809100;2023-02-17T00:41:01;6.93;;;6.33;;
3331;SDS011;1678;50.94845400;5.30809100;2023-02-17T00:43:29;7.17;;;6.47;;
3331;SDS011;1678;50.94845400;5.30809100;2023-02-17T00:45:58;8.23;;;7.60;;
3331;SDS011;1678;50.94845400;5.30809100;2023-02-17T00:48:26;7.13;;;6.63;;
3331;SDS011;1678;50.94845400;5.30809100;2023-02-17T00:50:55;7.53;;;6.80;;
3331;SDS011;1678;50.94845400;5.30809100;2023-02-17T00:53:24;8.60;;;6.53;;
3331;SDS011;1678;50.94845400;5.30809100;2023-02-17T00:55:52;7.57;;;6.97;;
3331;SDS011;1678;50.94845400;5.30809100;2023-02-17T00:58:20;7.90;;;7.27;;
3331;SDS011;1678;50.94845400;5.30809100;2023-02-17T01:00:48;10.93;;;7.77;;
3331;SDS011;1678;50.94845400;5.30809100;2023-02-17T01:03:16;7.53;;;6.90;;
3331;SDS011;1678;50.94845400;5.30809100;2023-02-17T01:05:46;6.87;;;6.33;;
3331;SDS011;1678;50.94845400;5.30809100;2023-02-17T01:08:16;8.80;;;6.90;;
3331;SDS011;1678;50.94845400;5.30809100;2023-02-17T01:10:45;10.30;;;7.80;;
3331;SDS011;1678;50.94845400;5.30809100;2023-02-17T01:13:15;7.50;;;6.93;;
3331;SDS011;1678;50.94845400;5.30809100;2023-02-17T01:15:46;8.87;;;7.80;;
3331;SDS011;1678;50.94845400;5.30809100;2023-02-17T01:18:15;6.83;;;6.33;;
3331;SDS011;1678;50.94845400;5.30809100;2023-02-17T01:20:47;13.00;;;7.90;;
3331;SDS011;1678;50.94845400;5.30809100;2023-02-17T01:23:17;8.90;;;8.00;;
3331;SDS011;1678;50.94845400;5.30809100;2023-02-17T01:25:46;7.40;;;6.70;;
3331;SDS011;1678;50.94845400;5.30809100;2023-02-17T01:28:16;7.00;;;6.47;;
3331;SDS011;1678;50.94845400;5.30809100;2023-02-17T01:30:46;8.10;;;7.40;;
3331;SDS011;1678;50.94845400;5.30809100;2023-02-17T01:33:15;7.50;;;6.90;;
3331;SDS011;1678;50.94845400;5.30809100;2023-02-17T01:35:43;7.80;;;7.00;;
3331;SDS011;1678;50.94845400;5.30809100;2023-02-17T01:38:11;8.33;;;7.20;;
3331;SDS011;1678;50.94845400;5.30809100;2023-02-17T01:40:45;9.30;;;8.50;;
3331;SDS011;1678;50.94845400;5.30809100;2023-02-17T01:43:14;7.67;;;6.97;;
3331;SDS011;1678;50.94845400;5.30809100;2023-02-17T01:45:48;9.10;;;7.87;;
3331;SDS011;1678;50.94845400;5.30809100;2023-02-17T01:48:19;8.43;;;7.53;;
3331;SDS011;1678;50.94845400;5.30809100;2023-02-17T01:50:52;8.97;;;8.17;;
3331;SDS011;1678;50.94845400;5.30809100;2023-02-17T01:53:23;7.23;;;6.73;;
3331;SDS011;1678;50.94845400;5.30809100;2023-02-17T01:55:56;7.90;;;7.30;;
3331;SDS011;1678;50.94845400;5.30809100;2023-02-17T01:58:24;7.50;;;6.80;;
3331;SDS011;1678;50.94845400;5.30809100;2023-02-17T02:00:54;8.97;;;8.07;;
3331;SDS011;1678;50.94845400;5.30809100;2023-02-17T02:03:26;8.13;;;7.43;;
3331;SDS011;1678;50.94845400;5.30809100;2023-02-17T02:05:57;9.33;;;7.63;;
3331;SDS011;1678;50.94845400;5.30809100;2023-02-17T02:08:28;7.13;;;6.53;;
3331;SDS011;1678;50.94845400;5.30809100;2023-02-17T02:11:02;5.40;;;5.10;;
3331;SDS011;1678;50.94845400;5.30809100;2023-02-17T02:13:30;8.93;;;6.70;;
3331;SDS011;1678;50.94845400;5.30809100;2023-02-17T02:16:00;6.77;;;6.33;;
3331;SDS011;1678;50.94845400;5.30809100;2023-02-17T02:18:39;8.53;;;6.30;;
3331;SDS011;1678;50.94845400;5.30809100;2023-02-17T02:21:28;7.77;;;6.87;;
3331;SDS011;1678;50.94845400;5.30809100;2023-02-17T02:24:33;6.50;;;6.00;;
3331;SDS011;1678;50.94845400;5.30809100;2023-02-17T02:27:25;7.70;;;7.00;;
3331;SDS011;1678;50.94845400;5.30809100;2023-02-17T02:30:17;10.47;;;8.33;;
3331;SDS011;1678;50.94845400;5.30809100;2023-02-17T02:33:08;9.13;;;8.23;;
3331;SDS011;1678;50.94845400;5.30809100;2023-02-17T02:35:46;8.43;;;7.73;;
3331;SDS011;1678;50.94845400;5.30809100;2023-02-17T02:38:19;8.17;;;7.47;;
3331;SDS011;1678;50.94845400;5.30809100;2023-02-17T02:40:53;9.27;;;8.37;;
3331;SDS011;1678;50.94845400;5.30809100;2023-02-17T02:43:26;7.97;;;7.17;;
3331;SDS011;1678;50.94845400;5.30809100;2023-02-17T02:45:55;7.90;;;7.10;;
3331;SDS011;1678;50.94845400;5.30809100;2023-02-17T02:48:24;8.00;;;6.60;;
3331;SDS011;1678;50.94845400;5.30809100;2023-02-17T02:50:57;9.07;;;8.17;;
3331;SDS011;1678;50.94845400;5.30809100;2023-02-17T02:53:40;7.93;;;6.63;;
3331;SDS011;1678;50.94845400;5.30809100;2023-02-17T02:56:26;7.53;;;7.00;;
3331;SDS011;1678;50.94845400;5.30809100;2023-02-17T02:59:06;6.70;;;6.20;;
3331;SDS011;1678;50.94845400;5.30809100;2023-02-17T03:01:42;7.60;;;6.83;;
3331;SDS011;1678;50.94845400;5.30809100;2023-02-17T03:04:18;6.07;;;5.53;;
3331;SDS011;1678;50.94845400;5.30809100;2023-02-17T03:06:58;9.33;;;6.83;;
3331;SDS011;1678;50.94845400;5.30809100;2023-02-17T03:09:30;6.43;;;6.03;;
3331;SDS011;1678;50.94845400;5.30809100;2023-02-17T03:11:58;5.50;;;5.10;;
3331;SDS011;1678;50.94845400;5.30809100;2023-02-17T03:14:26;7.10;;;6.40;;
3331;SDS011;1678;50.94845400;5.30809100;2023-02-17T03:16:57;7.47;;;6.83;;
3331;SDS011;1678;50.94845400;5.30809100;2023-02-17T03:19:27;8.60;;;7.90;;
3331;SDS011;1678;50.94845400;5.30809100;2023-02-17T03:21:56;7.13;;;6.60;;
3331;SDS011;1678;50.94845400;5.30809100;2023-02-17T03:24:27;8.53;;;7.63;;
3331;SDS011;1678;50.94845400;5.30809100;2023-02-17T03:26:56;6.83;;;6.33;;
3331;SDS011;1678;50.94845400;5.30809100;2023-02-17T03:29:24;6.50;;;6.10;;
3331;SDS011;1678;50.94845400;5.30809100;2023-02-17T03:31:52;5.53;;;5.30;;
3331;SDS011;1678;50.94845400;5.30809100;2023-02-17T03:34:20;5.33;;;4.93;;
3331;SDS011;1678;50.94845400;5.30809100;2023-02-17T03:36:50;4.80;;;4.40;;
3331;SDS011;1678;50.94845400;5.30809100;2023-02-17T03:39:18;4.67;;;4.33;;
3331;SDS011;1678;50.94845400;5.30809100;2023-02-17T03:41:46;3.50;;;3.40;;
3331;SDS011;1678;50.94845400;5.30809100;2023-02-17T03:44:16;6.20;;;3.83;;
3331;SDS011;1678;50.94845400;5.30809100;2023-02-17T03:46:45;3.97;;;3.67;;
3331;SDS011;1678;50.94845400;5.30809100;2023-02-17T03:49:13;4.03;;;3.83;;
3331;SDS011;1678;50.94845400;5.30809100;2023-02-17T03:51:41;4.53;;;4.20;;
3331;SDS011;1678;50.94845400;5.30809100;2023-02-17T03:54:11;5.03;;;4.63;;
3331;SDS011;1678;50.94845400;5.30809100;2023-02-17T03:56:39;5.20;;;4.80;;
3331;SDS011;1678;50.94845400;5.30809100;2023-02-17T03:59:07;4.70;;;4.50;;
3331;SDS011;1678;50.94845400;5.30809100;2023-02-17T04:01:35;7.50;;;4.50;;
3331;SDS011;1678;50.94845400;5.30809100;2023-02-17T04:04:03;3.63;;;3.43;;
3331;SDS011;1678;50.94845400;5.30809100;2023-02-17T04:06:31;5.00;;;4.57;;
3331;SDS011;1678;50.94845400;5.30809100;2023-02-17T04:09:00;4.13;;;3.73;;
3331;SDS011;1678;50.94845400;5.30809100;2023-02-17T04:11:29;4.30;;;4.00;;
3331;SDS011;1678;50.94845400;5.30809100;2023-02-17T04:13:59;5.43;;;5.20;;
3331;SDS011;1678;50.94845400;5.30809100;2023-02-17T04:16:27;4.87;;;4.67;;
3331;SDS011;1678;50.94845400;5.30809100;2023-02-17T04:18:55;4.97;;;4.67;;
3331;SDS011;1678;50.94845400;5.30809100;2023-02-17T04:21:23;6.40;;;5.80;;
3331;SDS011;1678;50.94845400;5.30809100;2023-02-17T04:23:52;5.00;;;4.70;;
3331;SDS011;1678;50.94845400;5.30809100;2023-02-17T04:26:20;5.70;;;5.33;;
3331;SDS011;1678;50.94845400;5.30809100;2023-02-17T04:28:49;8.20;;;5.90;;
3331;SDS011;1678;50.94845400;5.30809100;2023-02-17T04:31:17;7.30;;;5.93;;
3331;SDS011;1678;50.94845400;5.30809100;2023-02-17T04:33:46;7.90;;;7.20;;
3331;SDS011;1678;50.94845400;5.30809100;2023-02-17T04:36:14;10.23;;;9.30;;
3331;SDS011;1678;50.94845400;5.30809100;2023-02-17T04:38:42;9.43;;;7.43;;
3331;SDS011;1678;50.94845400;5.30809100;2023-02-17T04:41:10;10.07;;;8.33;;
3331;SDS011;1678;50.94845400;5.30809100;2023-02-17T04:43:38;9.67;;;8.20;;
3331;SDS011;1678;50.94845400;5.30809100;2023-02-17T04:46:08;19.73;;;11.10;;
3331;SDS011;1678;50.94845400;5.30809100;2023-02-17T04:48:37;13.53;;;10.97;;
3331;SDS011;1678;50.94845400;5.30809100;2023-02-17T04:51:05;17.30;;;12.83;;
3331;SDS011;1678;50.94845400;5.30809100;2023-02-17T04:53:33;19.17;;;13.53;;
3331;SDS011;1678;50.94845400;5.30809100;2023-02-17T04:56:01;16.37;;;11.80;;
3331;SDS011;1678;50.94845400;5.30809100;2023-02-17T04:58:30;17.50;;;12.00;;
3331;SDS011;1678;50.94845400;5.30809100;2023-02-17T05:00:59;20.23;;;12.60;;
3331;SDS011;1678;50.94845400;5.30809100;2023-02-17T05:03:28;15.23;;;11.90;;
3331;SDS011;1678;50.94845400;5.30809100;2023-02-17T05:05:56;15.73;;;12.30;;
3331;SDS011;1678;50.94845400;5.30809100;2023-02-17T05:08:24;24.30;;;13.37;;
3331;SDS011;1678;50.94845400;5.30809100;2023-02-17T05:10:52;17.83;;;13.20;;
3331;SDS011;1678;50.94845400;5.30809100;2023-02-17T05:13:21;20.20;;;13.07;;
3331;SDS011;1678;50.94845400;5.30809100;2023-02-17T05:15:49;23.70;;;12.17;;
3331;SDS011;1678;50.94845400;5.30809100;2023-02-17T05:18:17;16.03;;;10.57;;
3331;SDS011;1678;50.94845400;5.30809100;2023-02-17T05:20:46;13.13;;;10.20;;
3331;SDS011;1678;50.94845400;5.30809100;2023-02-17T05:23:15;10.37;;;9.37;;
3331;SDS011;1678;50.94845400;5.30809100;2023-02-17T05:25:43;10.53;;;8.80;;
3331;SDS011;1678;50.94845400;5.30809100;2023-02-17T05:28:13;10.20;;;9.20;;
3331;SDS011;1678;50.94845400;5.30809100;2023-02-17T05:30:41;14.27;;;8.53;;
3331;SDS011;1678;50.94845400;5.30809100;2023-02-17T05:33:10;8.33;;;7.40;;
3331;SDS011;1678;50.94845400;5.30809100;2023-02-17T05:35:38;7.10;;;6.27;;
3331;SDS011;1678;50.94845400;5.30809100;2023-02-17T05:38:07;7.57;;;6.77;;
3331;SDS011;1678;50.94845400;5.30809100;2023-02-17T05:40:35;7.97;;;7.33;;
3331;SDS011;1678;50.94845400;5.30809100;2023-02-17T05:43:03;6.97;;;6.20;;
3331;SDS011;1678;50.94845400;5.30809100;2023-02-17T05:45:31;6.73;;;5.43;;
3331;SDS011;1678;50.94845400;5.30809100;2023-02-17T05:47:59;6.47;;;5.90;;
3331;SDS011;1678;50.94845400;5.30809100;2023-02-17T05:50:28;7.03;;;6.43;;
3331;SDS011;1678;50.94845400;5.30809100;2023-02-17T05:52:56;8.13;;;7.33;;
3331;SDS011;1678;50.94845400;5.30809100;2023-02-17T05:55:25;6.90;;;6.43;;
3331;SDS011;1678;50.94845400;5.30809100;2023-02-17T05:57:53;10.67;;;7.47;;
3331;SDS011;1678;50.94845400;5.30809100;2023-02-17T06:00:21;9.57;;;8.50;;
3331;SDS011;1678;50.94845400;5.30809100;2023-02-17T06:02:50;10.33;;;8.97;;
3331;SDS011;1678;50.94845400;5.30809100;2023-02-17T06:05:18;8.50;;;7.43;;
3331;SDS011;1678;50.94845400;5.30809100;2023-02-17T06:07:46;8.90;;;7.83;;
3331;SDS011;1678;50.94845400;5.30809100;2023-02-17T06:10:14;8.43;;;7.20;;
3331;SDS011;1678;50.94845400;5.30809100;2023-02-17T06:12:44;6.33;;;5.83;;
3331;SDS011;1678;50.94845400;5.30809100;2023-02-17T06:15:12;8.37;;;6.40;;
3331;SDS011;1678;50.94845400;5.30809100;2023-02-17T06:17:40;6.40;;;5.80;;
3331;SDS011;1678;50.94845400;5.30809100;2023-02-17T06:20:08;6.13;;;5.70;;
3331;SDS011;1678;50.94845400;5.30809100;2023-02-17T06:22:37;4.30;;;4.00;;
3331;SDS011;1678;50.94845400;5.30809100;2023-02-17T06:25:05;6.20;;;5.80;;
3331;SDS011;1678;50.94845400;5.30809100;2023-02-17T06:27:34;6.27;;;5.83;;
3331;SDS011;1678;50.94845400;5.30809100;2023-02-17T06:30:04;6.23;;;5.23;;
3331;SDS011;1678;50.94845400;5.30809100;2023-02-17T06:32:33;5.50;;;5.10;;
3331;SDS011;1678;50.94845400;5.30809100;2023-02-17T06:35:01;6.63;;;6.03;;
3331;SDS011;1678;50.94845400;5.30809100;2023-02-17T06:37:30;6.20;;;5.57;;
3331;SDS011;1678;50.94845400;5.30809100;2023-02-17T06:39:58;8.87;;;5.90;;
3331;SDS011;1678;50.94845400;5.30809100;2023-02-17T06:42:26;5.30;;;4.73;;
3331;SDS011;1678;50.94845400;5.30809100;2023-02-17T06:44:54;9.63;;;5.60;;
3331;SDS011;1678;50.94845400;5.30809100;2023-02-17T06:47:23;7.33;;;5.20;;
3331;SDS011;1678;50.94845400;5.30809100;2023-02-17T06:49:51;6.57;;;5.97;;
3331;SDS011;1678;50.94845400;5.30809100;2023-02-17T06:52:19;5.90;;;5.30;;
3331;SDS011;1678;50.94845400;5.30809100;2023-02-17T06:54:47;5.77;;;5.33;;
3331;SDS011;1678;50.94845400;5.30809100;2023-02-17T06:57:16;9.23;;;6.30;;
3331;SDS011;1678;50.94845400;5.30809100;2023-02-17T06:59:44;5.83;;;5.40;;
3331;SDS011;1678;50.94845400;5.30809100;2023-02-17T07:02:13;5.60;;;5.20;;
3331;SDS011;1678;50.94845400;5.30809100;2023-02-17T07:04:42;6.80;;;6.20;;
3331;SDS011;1678;50.94845400;5.30809100;2023-02-17T07:07:11;12.90;;;6.43;;
3331;SDS011;1678;50.94845400;5.30809100;2023-02-17T07:09:39;6.53;;;6.03;;
3331;SDS011;1678;50.94845400;5.30809100;2023-02-17T07:12:07;7.53;;;7.00;;
3331;SDS011;1678;50.94845400;5.30809100;2023-02-17T07:14:36;5.70;;;5.20;;
3331;SDS011;1678;50.94845400;5.30809100;2023-02-17T07:17:04;5.33;;;4.93;;
3331;SDS011;1678;50.94845400;5.30809100;2023-02-17T07:19:32;6.83;;;6.20;;
3331;SDS011;1678;50.94845400;5.30809100;2023-02-17T07:22:02;5.80;;;5.40;;
3331;SDS011;1678;50.94845400;5.30809100;2023-02-17T07:24:30;11.73;;;5.50;;
3331;SDS011;1678;50.94845400;5.30809100;2023-02-17T07:26:59;10.00;;;5.50;;
3331;SDS011;1678;50.94845400;5.30809100;2023-02-17T07:29:27;9.87;;;5.93;;
3331;SDS011;1678;50.94845400;5.30809100;2023-02-17T07:31:55;6.07;;;5.50;;
3331;SDS011;1678;50.94845400;5.30809100;2023-02-17T07:34:24;6.30;;;5.80;;
3331;SDS011;1678;50.94845400;5.30809100;2023-02-17T07:36:52;8.40;;;7.33;;
3331;SDS011;1678;50.94845400;5.30809100;2023-02-17T07:39:21;6.77;;;6.27;;
3331;SDS011;1678;50.94845400;5.30809100;2023-02-17T07:41:50;6.13;;;5.03;;
3331;SDS011;1678;50.94845400;5.30809100;2023-02-17T07:44:18;7.50;;;5.63;;
3331;SDS011;1678;50.94845400;5.30809100;2023-02-17T07:46:46;5.97;;;5.40;;
3331;SDS011;1678;50.94845400;5.30809100;2023-02-17T07:49:14;6.63;;;5.87;;
3331;SDS011;1678;50.94845400;5.30809100;2023-02-17T07:51:43;5.80;;;5.40;;
3331;SDS011;1678;50.94845400;5.30809100;2023-02-17T07:54:11;9.27;;;6.70;;
3331;SDS011;1678;50.94845400;5.30809100;2023-02-17T07:56:40;5.03;;;4.73;;
3331;SDS011;1678;50.94845400;5.30809100;2023-02-17T07:59:09;8.97;;;5.60;;
3331;SDS011;1678;50.94845400;5.30809100;2023-02-17T08:01:38;8.80;;;5.07;;
3331;SDS011;1678;50.94845400;5.30809100;2023-02-17T08:04:06;8.47;;;6.77;;
3331;SDS011;1678;50.94845400;5.30809100;2023-02-17T08:06:36;7.90;;;5.70;;
3331;SDS011;1678;50.94845400;5.30809100;2023-02-17T08:09:05;7.00;;;5.30;;
3331;SDS011;1678;50.94845400;5.30809100;2023-02-17T08:11:52;7.47;;;6.63;;
3331;SDS011;1678;50.94845400;5.30809100;2023-02-17T08:14:42;6.73;;;6.13;;
3331;SDS011;1678;50.94845400;5.30809100;2023-02-17T08:17:11;5.73;;;4.97;;
3331;SDS011;1678;50.94845400;5.30809100;2023-02-17T08:19:39;8.93;;;7.50;;
3331;SDS011;1678;50.94845400;5.30809100;2023-02-17T08:22:14;7.77;;;7.00;;
3331;SDS011;1678;50.94845400;5.30809100;2023-02-17T08:24:43;10.50;;;7.67;;
3331;SDS011;1678;50.94845400;5.30809100;2023-02-17T08:27:12;7.00;;;6.40;;
3331;SDS011;1678;50.94845400;5.30809100;2023-02-17T08:29:41;8.00;;;6.97;;
3331;SDS011;1678;50.94845400;5.30809100;2023-02-17T08:32:10;7.47;;;6.87;;
3331;SDS011;1678;50.94845400;5.30809100;2023-02-17T08:34:39;10.67;;;7.40;;
3331;SDS011;1678;50.94845400;5.30809100;2023-02-17T08:37:07;6.90;;;5.37;;
3331;SDS011;1678;50.94845400;5.30809100;2023-02-17T08:39:36;6.80;;;6.20;;
3331;SDS011;1678;50.94845400;5.30809100;2023-02-17T08:42:05;7.63;;;6.03;;
3331;SDS011;1678;50.94845400;5.30809100;2023-02-17T08:44:35;8.57;;;6.77;;
3331;SDS011;1678;50.94845400;5.30809100;2023-02-17T08:47:03;9.03;;;5.20;;
3331;SDS011;1678;50.94845400;5.30809100;2023-02-17T08:49:32;4.27;;;4.07;;
3331;SDS011;1678;50.94845400;5.30809100;2023-02-17T08:52:01;5.17;;;4.70;;
3331;SDS011;1678;50.94845400;5.30809100;2023-02-17T08:54:31;5.47;;;4.97;;
3331;SDS011;1678;50.94845400;5.30809100;2023-02-17T08:56:59;5.87;;;5.40;;
3331;SDS011;1678;50.94845400;5.30809100;2023-02-17T08:59:28;5.87;;;5.37;;
3331;SDS011;1678;50.94845400;5.30809100;2023-02-17T09:01:57;6.10;;;4.33;;
3331;SDS011;1678;50.94845400;5.30809100;2023-02-17T09:04:25;6.60;;;4.27;;
3331;SDS011;1678;50.94845400;5.30809100;2023-02-17T09:06:53;3.33;;;3.20;;
3331;SDS011;1678;50.94845400;5.30809100;2023-02-17T09:09:23;6.07;;;5.57;;
3331;SDS011;1678;50.94845400;5.30809100;2023-02-17T09:11:53;6.77;;;4.67;;
3331;SDS011;1678;50.94845400;5.30809100;2023-02-17T09:14:23;6.67;;;4.60;;
3331;SDS011;1678;50.94845400;5.30809100;2023-02-17T09:16:51;4.97;;;4.67;;
3331;SDS011;1678;50.94845400;5.30809100;2023-02-17T09:19:22;5.07;;;4.77;;
3331;SDS011;1678;50.94845400;5.30809100;2023-02-17T09:21:50;6.60;;;6.00;;
3331;SDS011;1678;50.94845400;5.30809100;2023-02-17T09:24:19;7.50;;;5.23;;
3331;SDS011;1678;50.94845400;5.30809100;2023-02-17T09:26:47;8.23;;;4.00;;
3331;SDS011;1678;50.94845400;5.30809100;2023-02-17T09:29:15;4.40;;;3.80;;
3331;SDS011;1678;50.94845400;5.30809100;2023-02-17T09:31:43;5.30;;;3.67;;
3331;SDS011;1678;50.94845400;5.30809100;2023-02-17T09:34:11;5.00;;;4.20;;
3331;SDS011;1678;50.94845400;5.30809100;2023-02-17T09:36:42;4.17;;;3.77;;
3331;SDS011;1678;50.94845400;5.30809100;2023-02-17T09:39:11;4.97;;;4.47;;
3331;SDS011;1678;50.94845400;5.30809100;2023-02-17T09:41:41;7.57;;;4.90;;
3331;SDS011;1678;50.94845400;5.30809100;2023-02-17T09:44:15;5.93;;;4.33;;
3331;SDS011;1678;50.94845400;5.30809100;2023-02-17T09:46:49;3.90;;;3.60;;
3331;SDS011;1678;50.94845400;5.30809100;2023-02-17T09:49:30;4.50;;;4.10;;
3331;SDS011;1678;50.94845400;5.30809100;2023-02-17T09:52:06;6.10;;;5.43;;
3331;SDS011;1678;50.94845400;5.30809100;2023-02-17T09:54:40;5.30;;;3.70;;
3331;SDS011;1678;50.94845400;5.30809100;2023-02-17T09:57:16;5.77;;;4.30;;
3331;SDS011;1678;50.94845400;5.30809100;2023-02-17T09:59:47;4.30;;;4.00;;
3331;SDS011;1678;50.94845400;5.30809100;2023-02-17T10:02:23;5.20;;;3.43;;
3331;SDS011;1678;50.94845400;5.30809100;2023-02-17T10:04:59;4.10;;;3.80;;
3331;SDS011;1678;50.94845400;5.30809100;2023-02-17T10:07:34;4.47;;;4.10;;
3331;SDS011;1678;50.94845400;5.30809100;2023-02-17T10:10:06;5.00;;;4.60;;
3331;SDS011;1678;50.94845400;5.30809100;2023-02-17T10:12:38;4.37;;;4.07;;
3331;SDS011;1678;50.94845400;5.30809100;2023-02-17T10:15:11;4.60;;;4.20;;
3331;SDS011;1678;50.94845400;5.30809100;2023-02-17T10:17:45;4.07;;;3.77;;
3331;SDS011;1678;50.94845400;5.30809100;2023-02-17T10:20:18;4.17;;;3.87;;
3331;SDS011;1678;50.94845400;5.30809100;2023-02-17T10:22:51;6.20;;;4.60;;
3331;SDS011;1678;50.94845400;5.30809100;2023-02-17T10:25:24;4.93;;;4.40;;
3331;SDS011;1678;50.94845400;5.30809100;2023-02-17T10:28:07;5.97;;;5.50;;
3331;SDS011;1678;50.94845400;5.30809100;2023-02-17T10:30:38;4.73;;;4.30;;
3331;SDS011;1678;50.94845400;5.30809100;2023-02-17T10:33:16;3.77;;;3.37;;
3331;SDS011;1678;50.94845400;5.30809100;2023-02-17T10:35:50;4.97;;;4.43;;
3331;SDS011;1678;50.94845400;5.30809100;2023-02-17T10:38:26;5.50;;;5.00;;
3331;SDS011;1678;50.94845400;5.30809100;2023-02-17T10:41:04;5.87;;;5.37;;
3331;SDS011;1678;50.94845400;5.30809100;2023-02-17T10:43:38;5.27;;;3.97;;
3331;SDS011;1678;50.94845400;5.30809100;2023-02-17T10:46:10;6.90;;;4.97;;
3331;SDS011;1678;50.94845400;5.30809100;2023-02-17T10:48:43;4.80;;;4.40;;
3331;SDS011;1678;50.94845400;5.30809100;2023-02-17T10:51:16;6.60;;;4.37;;
3331;SDS011;1678;50.94845400;5.30809100;2023-02-17T10:53:48;4.77;;;4.37;;
3331;SDS011;1678;50.94845400;5.30809100;2023-02-17T10:56:20;7.63;;;5.80;;
3331;SDS011;1678;50.94845400;5.30809100;2023-02-17T10:58:53;4.70;;;4.10;;
3331;SDS011;1678;50.94845400;5.30809100;2023-02-17T11:01:26;5.47;;;4.97;;
3331;SDS011;1678;50.94845400;5.30809100;2023-02-17T11:03:58;5.87;;;5.30;;
3331;SDS011;1678;50.94845400;5.30809100;2023-02-17T11:06:28;5.50;;;5.07;;
3331;SDS011;1678;50.94845400;5.30809100;2023-02-17T11:08:59;6.47;;;5.17;;
3331;SDS011;1678;50.94845400;5.30809100;2023-02-17T11:11:30;5.07;;;4.77;;
3331;SDS011;1678;50.94845400;5.30809100;2023-02-17T11:14:07;5.57;;;4.90;;
3331;SDS011;1678;50.94845400;5.30809100;2023-02-17T11:16:39;5.40;;;5.00;;
3331;SDS011;1678;50.94845400;5.30809100;2023-02-17T11:19:18;4.73;;;4.37;;
3331;SDS011;1678;50.94845400;5.30809100;2023-02-17T11:21:49;5.07;;;4.67;;
3331;SDS011;1678;50.94845400;5.30809100;2023-02-17T11:24:20;3.87;;;3.60;;
3331;SDS011;1678;50.94845400;5.30809100;2023-02-17T11:26:55;4.83;;;4.63;;
3331;SDS011;1678;50.94845400;5.30809100;2023-02-17T11:29:24;3.93;;;3.57;;
3331;SDS011;1678;50.94845400;5.30809100;2023-02-17T11:31:54;3.70;;;3.50;;
3331;SDS011;1678;50.94845400;5.30809100;2023-02-17T11:34:26;4.17;;;3.77;;
3331;SDS011;1678;50.94845400;5.30809100;2023-02-17T11:36:56;2.77;;;2.57;;
3331;SDS011;1678;50.94845400;5.30809100;2023-02-17T11:39:28;2.60;;;2.50;;
3331;SDS011;1678;50.94845400;5.30809100;2023-02-17T11:41:56;4.00;;;3.23;;
3331;SDS011;1678;50.94845400;5.30809100;2023-02-17T11:44:25;2.73;;;2.43;;
3331;SDS011;1678;50.94845400;5.30809100;2023-02-17T11:46:58;4.00;;;2.13;;
3331;SDS011;1678;50.94845400;5.30809100;2023-02-17T11:49:36;2.00;;;1.90;;
3331;SDS011;1678;50.94845400;5.30809100;2023-02-17T11:55:22;2.40;;;1.80;;
3331;SDS011;1678;50.94845400;5.30809100;2023-02-17T11:58:03;1.33;;;1.17;;
3331;SDS011;1678;50.94845400;5.30809100;2023-02-17T12:00:42;3.23;;;1.67;;
3331;SDS011;1678;50.94845400;5.30809100;2023-02-17T12:03:23;2.07;;;1.87;;
3331;SDS011;1678;50.94845400;5.30809100;2023-02-17T12:06:06;1.13;;;1.13;;
3331;SDS011;1678;50.94845400;5.30809100;2023-02-17T12:08:46;0.67;;;0.63;;
3331;SDS011;1678;50.94845400;5.30809100;2023-02-17T12:11:30;0.70;;;0.70;;
3331;SDS011;1678;50.94845400;5.30809100;2023-02-17T12:14:07;0.70;;;0.70;;
3331;SDS011;1678;50.94845400;5.30809100;2023-02-17T12:16:47;0.63;;;0.57;;
3331;SDS011;1678;50.94845400;5.30809100;2023-02-17T12:19:26;1.87;;;0.63;;
3331;SDS011;1678;50.94845400;5.30809100;2023-02-17T12:22:07;0.70;;;0.63;;
3331;SDS011;1678;50.94845400;5.30809100;2023-02-17T12:24:57;1.00;;;1.00;;
3331;SDS011;1678;50.94845400;5.30809100;2023-02-17T12:27:40;3.30;;;0.73;;
3331;SDS011;1678;50.94845400;5.30809100;2023-02-17T12:30:19;0.90;;;0.90;;
3331;SDS011;1678;50.94845400;5.30809100;2023-02-17T12:33:10;1.47;;;1.47;;
3331;SDS011;1678;50.94845400;5.30809100;2023-02-17T12:35:48;0.93;;;0.93;;
3331;SDS011;1678;50.94845400;5.30809100;2023-02-17T12:38:23;6.03;;;0.83;;
3331;SDS011;1678;50.94845400;5.30809100;2023-02-17T12:40:54;1.03;;;1.03;;
3331;SDS011;1678;50.94845400;5.30809100;2023-02-17T12:43:33;1.60;;;0.63;;
3331;SDS011;1678;50.94845400;5.30809100;2023-02-17T12:46:05;0.93;;;0.77;;
3331;SDS011;1678;50.94845400;5.30809100;2023-02-17T12:48:37;2.43;;;1.90;;
3331;SDS011;1678;50.94845400;5.30809100;2023-02-17T12:51:11;0.60;;;0.60;;
3331;SDS011;1678;50.94845400;5.30809100;2023-02-17T12:53:45;0.73;;;0.73;;
3331;SDS011;1678;50.94845400;5.30809100;2023-02-17T12:56:37;3.30;;;0.80;;
3331;SDS011;1678;50.94845400;5.30809100;2023-02-17T12:59:16;0.80;;;0.80;;
3331;SDS011;1678;50.94845400;5.30809100;2023-02-17T13:01:50;2.40;;;1.30;;
3331;SDS011;1678;50.94845400;5.30809100;2023-02-17T13:04:25;4.83;;;1.47;;
3331;SDS011;1678;50.94845400;5.30809100;2023-02-17T13:07:05;0.87;;;0.87;;
3331;SDS011;1678;50.94845400;5.30809100;2023-02-17T13:09:41;1.77;;;1.40;;
3331;SDS011;1678;50.94845400;5.30809100;2023-02-17T13:12:28;4.67;;;1.10;;
3331;SDS011;1678;50.94845400;5.30809100;2023-02-17T13:15:02;1.57;;;1.47;;
3331;SDS011;1678;50.94845400;5.30809100;2023-02-17T13:17:33;1.90;;;1.20;;
3331;SDS011;1678;50.94845400;5.30809100;2023-02-17T13:23:11;0.83;;;0.83;;
3331;SDS011;1678;50.94845400;5.30809100;2023-02-17T13:25:41;1.37;;;1.20;;
3331;SDS011;1678;50.94845400;5.30809100;2023-02-17T13:28:16;1.47;;;1.13;;
3331;SDS011;1678;50.94845400;5.30809100;2023-02-17T13:31:08;2.13;;;1.10;;
3331;SDS011;1678;50.94845400;5.30809100;2023-02-17T13:33:42;0.90;;;0.90;;
3331;SDS011;1678;50.94845400;5.30809100;2023-02-17T13:36:15;1.57;;;0.77;;
3331;SDS011;1678;50.94845400;5.30809100;2023-02-17T13:38:53;0.70;;;0.70;;